createdAt,value
2023-01-28T00:00:51.800Z,99126.38
2023-01-28T00:01:59.883Z,99121.82
2023-01-28T00:03:01.955Z,99122.30
2023-01-28T00:04:03.994Z,99120.66
2023-01-28T00:05:06.833Z,99123.05
2023-01-28T00:06:15.831Z,99120.78
2023-01-28T00:07:19.201Z,99118.04
2023-01-28T00:08:21.216Z,99124.42
2023-01-28T00:09:23.107Z,99120.05
2023-01-28T00:10:25.032Z,99120.90
2023-01-28T00:11:26.959Z,99121.48
2023-01-28T00:12:29.756Z,99122.12
2023-01-28T00:13:32.872Z,99121.14
2023-01-28T00:14:34.839Z,99119.98
2023-01-28T00:15:36.728Z,99120.15
2023-01-28T00:16:38.653Z,99120.70
2023-01-28T00:17:40.567Z,99123.02
2023-01-28T00:18:42.476Z,99123.34
2023-01-28T00:19:44.926Z,99124.35
2023-01-28T00:21:16.372Z,99123.23
2023-01-28T00:22:18.424Z,99124.05
2023-01-28T00:23:20.210Z,99128.62
2023-01-28T00:24:22.113Z,99125.51
2023-01-28T00:25:23.942Z,99123.36
2023-01-28T00:26:26.648Z,99124.38
2023-01-28T00:27:28.646Z,99125.73
2023-01-28T00:28:33.797Z,99126.19
2023-01-28T00:29:35.765Z,99124.28
2023-01-28T00:30:38.168Z,99126.14
2023-01-28T00:31:41.478Z,99125.91
2023-01-28T00:32:44.458Z,99126.95
2023-01-28T00:33:49.504Z,99128.79
2023-01-28T00:34:51.554Z,99128.13
2023-01-28T00:36:04.183Z,99125.93
2023-01-28T00:37:06.513Z,99131.14
2023-01-28T00:38:09.124Z,99130.06
2023-01-28T00:39:15.314Z,99126.48
2023-01-28T00:40:17.820Z,99127.29
2023-01-28T00:41:23.193Z,99126.65
2023-01-28T00:42:25.975Z,99123.90
2023-01-28T00:43:31.385Z,99123.68
2023-01-28T00:44:33.230Z,99123.57
2023-01-28T00:45:39.187Z,99126.98
2023-01-28T00:46:41.980Z,99127.07
2023-01-28T00:47:45.274Z,99125.55
2023-01-28T00:48:48.025Z,99124.73
2023-01-28T00:49:49.905Z,99125.55
2023-01-28T00:50:51.956Z,99124.83
2023-01-28T00:51:55.205Z,99128.64
2023-01-28T00:52:57.108Z,99129.20
2023-01-28T00:53:59.835Z,99131.48
2023-01-28T00:55:02.538Z,99130.78
2023-01-28T00:56:09.058Z,99133.23
2023-01-28T00:57:11.605Z,99131.23
2023-01-28T00:58:13.659Z,99125.84
2023-01-28T00:59:15.650Z,99128.32
2023-01-28T01:00:20.266Z,99128.60
2023-01-28T01:01:27.160Z,99130.89
2023-01-28T01:02:29.917Z,99126.64
2023-01-28T01:03:31.892Z,99129.25
2023-01-28T01:04:35.472Z,99125.92
2023-01-28T01:05:38.536Z,99125.68
2023-01-28T01:06:42.681Z,99127.11
2023-01-28T01:07:45.007Z,99127.71
2023-01-28T01:08:50.290Z,99128.32
2023-01-28T01:09:52.893Z,99129.18
2023-01-28T01:10:59.233Z,99129.04
2023-01-28T01:12:01.751Z,99132.02
2023-01-28T01:13:06.178Z,99129.65
2023-01-28T01:14:10.600Z,99131.55
2023-01-28T01:15:13.340Z,99133.16
2023-01-28T01:16:17.409Z,99131.83
2023-01-28T01:17:20.395Z,99127.89
2023-01-28T01:18:22.339Z,99129.06
2023-01-28T01:19:24.210Z,99126.06
2023-01-28T01:20:33.817Z,99126.88
2023-01-28T01:21:36.600Z,99126.46
2023-01-28T01:22:39.315Z,99124.05
2023-01-28T01:23:42.148Z,99129.91
2023-01-28T01:24:44.147Z,99128.09
2023-01-28T01:25:46.219Z,99130.86
2023-01-28T01:26:49.715Z,99129.70
2023-01-28T01:27:51.683Z,99131.15
2023-01-28T01:28:54.040Z,99132.20
2023-01-28T01:29:56.368Z,99132.17
2023-01-28T01:31:15.436Z,99131.95
2023-01-28T01:32:18.613Z,99133.55
2023-01-28T01:33:20.501Z,99134.33
2023-01-28T01:34:22.553Z,99136.21
2023-01-28T01:35:24.413Z,99136.79
2023-01-28T01:36:26.478Z,99137.73
2023-01-28T01:37:29.733Z,99136.56
2023-01-28T01:38:32.020Z,99134.15
2023-01-28T01:39:34.704Z,99133.98
2023-01-28T01:40:36.792Z,99134.57
2023-01-28T01:41:39.785Z,99136.27
2023-01-28T01:42:42.103Z,99135.33
2023-01-28T01:43:48.676Z,99137.42
2023-01-28T01:45:07.111Z,99140.62
2023-01-28T01:46:09.153Z,99136.67
2023-01-28T01:47:12.253Z,99139.11
2023-01-28T01:48:28.658Z,99138.46
2023-01-28T01:49:31.219Z,99135.39
2023-01-28T01:50:42.451Z,99138.56
2023-01-28T01:51:48.482Z,99135.75
2023-01-28T01:52:56.301Z,99135.48
2023-01-28T01:54:00.701Z,99136.88
2023-01-28T01:55:11.137Z,99140.20
2023-01-28T01:56:17.970Z,99140.69
2023-01-28T01:57:27.575Z,99142.55
2023-01-28T01:58:36.146Z,99141.73
2023-01-28T01:59:42.528Z,99144.52
2023-01-28T02:00:44.713Z,99144.18
2023-01-28T02:01:47.005Z,99145.05
2023-01-28T02:02:51.940Z,99144.19
2023-01-28T02:03:58.722Z,99141.48
2023-01-28T02:05:00.613Z,99140.01
2023-01-28T02:06:04.139Z,99139.19
2023-01-28T02:07:10.030Z,99137.88
2023-01-28T02:08:23.489Z,99138.73
2023-01-28T02:09:32.687Z,99139.25
2023-01-28T02:10:34.572Z,99140.94
2023-01-28T02:11:37.026Z,99139.72
2023-01-28T02:12:52.529Z,99136.95
2023-01-28T02:13:58.646Z,99136.96
2023-01-28T02:15:07.876Z,99133.88
2023-01-28T02:16:11.901Z,99137.10
2023-01-28T02:17:14.403Z,99134.20
2023-01-28T02:18:16.888Z,99133.98
2023-01-28T02:19:26.425Z,99138.34
2023-01-28T02:20:52.049Z,99140.00
2023-01-28T02:22:05.890Z,99136.93
2023-01-28T02:23:21.489Z,99137.02
2023-01-28T02:25:09.586Z,99136.41
2023-01-28T02:26:36.253Z,99140.08
2023-01-28T02:27:59.943Z,99138.77
2023-01-28T02:29:04.672Z,99136.89
2023-01-28T02:30:25.311Z,99138.95
2023-01-28T02:32:03.732Z,99137.00
2023-01-28T02:33:34.993Z,99139.30
2023-01-28T02:34:49.697Z,99139.59
2023-01-28T02:35:55.879Z,99139.27
2023-01-28T02:37:07.080Z,99139.14
2023-01-28T02:38:33.236Z,99140.02
2023-01-28T02:39:52.202Z,99141.09
2023-01-28T02:41:04.028Z,99141.92
2023-01-28T02:42:35.252Z,99142.10
2023-01-28T02:43:41.433Z,99140.67
2023-01-28T02:44:43.470Z,99136.26
2023-01-28T02:46:04.639Z,99141.62
2023-01-28T02:47:35.078Z,99138.42
2023-01-28T02:48:37.959Z,99138.80
2023-01-28T02:49:51.970Z,99142.53
2023-01-28T02:51:24.772Z,99141.71
2023-01-28T02:53:00.385Z,99140.38
2023-01-28T02:54:14.695Z,99140.02
2023-01-28T02:55:31.459Z,99140.38
2023-01-28T02:56:48.755Z,99142.21
2023-01-28T02:58:06.602Z,99141.50
2023-01-28T02:59:34.139Z,99144.26
2023-01-28T03:01:01.806Z,99148.00
2023-01-28T03:02:46.001Z,99147.74
2023-01-28T03:04:07.753Z,99153.20
2023-01-28T03:05:23.147Z,99152.88
2023-01-28T03:06:36.352Z,99150.60
2023-01-28T03:07:39.651Z,99152.16
2023-01-28T03:09:23.231Z,99148.63
2023-01-28T03:10:28.562Z,99148.77
2023-01-28T03:11:53.545Z,99149.11
2023-01-28T03:13:18.131Z,99148.31
2023-01-28T03:14:41.112Z,99149.20
2023-01-28T03:16:08.631Z,99150.76
2023-01-28T03:17:40.806Z,99153.24
2023-01-28T03:19:10.948Z,99155.83
2023-01-28T03:20:33.103Z,99159.95
2023-01-28T03:22:02.964Z,99159.06
2023-01-28T03:23:33.643Z,99157.72
2023-01-28T03:25:03.346Z,99159.27
2023-01-28T03:26:30.837Z,99156.98
2023-01-28T03:27:57.535Z,99154.34
2023-01-28T03:29:27.618Z,99152.84
2023-01-28T03:30:59.158Z,99152.79
2023-01-28T03:32:32.212Z,99150.59
2023-01-28T03:33:56.134Z,99150.50
2023-01-28T03:35:17.624Z,99148.77
2023-01-28T03:36:39.625Z,99148.70
2023-01-28T03:37:43.171Z,99142.80
2023-01-28T03:38:56.654Z,99148.73
2023-01-28T03:40:04.903Z,99142.02
2023-01-28T03:41:07.176Z,99145.38
2023-01-28T03:42:13.792Z,99138.42
2023-01-28T03:43:33.689Z,99136.19
2023-01-28T03:44:55.364Z,99139.20
2023-01-28T03:45:58.160Z,99138.17
2023-01-28T03:47:00.288Z,99138.09
2023-01-28T03:48:02.211Z,99137.76
2023-01-28T03:49:04.159Z,99139.41
2023-01-28T03:50:07.412Z,99142.71
2023-01-28T03:51:26.539Z,99145.27
2023-01-28T03:52:32.007Z,99147.16
2023-01-28T03:53:46.085Z,99144.27
2023-01-28T03:54:49.314Z,99146.98
2023-01-28T03:55:53.727Z,99148.83
2023-01-28T03:56:55.651Z,99147.52
2023-01-28T03:57:57.574Z,99151.69
2023-01-28T03:58:59.420Z,99149.65
2023-01-28T04:00:01.657Z,99149.73
2023-01-28T04:01:03.988Z,99148.94
2023-01-28T04:02:06.404Z,99148.10
2023-01-28T04:03:16.050Z,99146.66
2023-01-28T04:04:25.115Z,99148.77
2023-01-28T04:05:30.381Z,99146.66
2023-01-28T04:06:34.151Z,99144.92
2023-01-28T04:07:56.744Z,99145.85
2023-01-28T04:09:08.873Z,99142.83
2023-01-28T04:10:31.370Z,99141.86
2023-01-28T04:11:41.009Z,99140.21
2023-01-28T04:12:44.283Z,99144.84
2023-01-28T04:13:48.794Z,99144.52
2023-01-28T04:14:51.980Z,99145.45
2023-01-28T04:16:03.643Z,99144.98
2023-01-28T04:17:10.888Z,99146.34
2023-01-28T04:18:13.435Z,99146.75
2023-01-28T04:19:16.189Z,99143.30
2023-01-28T04:20:19.362Z,99145.00
2023-01-28T04:21:21.228Z,99143.99
2023-01-28T04:22:23.531Z,99142.73
2023-01-28T04:23:26.941Z,99142.73
2023-01-28T04:24:30.359Z,99144.52
2023-01-28T04:25:35.110Z,99143.73
2023-01-28T04:26:40.374Z,99143.27
2023-01-28T04:27:42.670Z,99146.10
2023-01-28T04:28:52.845Z,99147.51
2023-01-28T04:29:55.413Z,99147.01
2023-01-28T04:31:10.033Z,99146.80
2023-01-28T04:32:32.607Z,99144.48
2023-01-28T04:34:01.829Z,99147.67
2023-01-28T04:35:17.442Z,99149.22
2023-01-28T04:37:10.109Z,99146.52
2023-01-28T04:38:40.575Z,99148.95
2023-01-28T04:40:05.883Z,99150.88
2023-01-28T04:41:23.411Z,99151.95
2023-01-28T04:42:25.909Z,99156.57
2023-01-28T04:43:38.969Z,99156.09
2023-01-28T04:45:08.801Z,99157.92
2023-01-28T04:46:26.672Z,99160.32
2023-01-28T04:47:45.270Z,99157.95
2023-01-28T04:49:05.806Z,99156.54
2023-01-28T04:50:25.828Z,99157.45
2023-01-28T04:51:44.359Z,99156.24
2023-01-28T04:53:01.896Z,99154.57
2023-01-28T04:54:54.005Z,99156.14
2023-01-28T04:55:57.620Z,99155.38
2023-01-28T04:56:59.920Z,99155.75
2023-01-28T04:58:02.343Z,99159.53
2023-01-28T04:59:05.023Z,99160.30
2023-01-28T05:00:09.127Z,99156.77
2023-01-28T05:01:11.121Z,99161.00
2023-01-28T05:02:13.301Z,99160.83
2023-01-28T05:03:17.843Z,99160.00
2023-01-28T05:04:19.956Z,99160.60
2023-01-28T05:05:22.469Z,99164.66
2023-01-28T05:06:34.028Z,99163.10
2023-01-28T05:07:41.847Z,99162.03
2023-01-28T05:08:46.182Z,99161.10
2023-01-28T05:09:50.622Z,99168.36
2023-01-28T05:10:52.765Z,99169.02
2023-01-28T05:11:54.714Z,99167.77
2023-01-28T05:12:56.645Z,99167.48
2023-01-28T05:13:58.689Z,99171.70
2023-01-28T05:15:06.727Z,99169.16
2023-01-28T05:16:08.882Z,99172.94
2023-01-28T05:17:10.758Z,99173.98
2023-01-28T05:18:13.277Z,99172.93
2023-01-28T05:19:21.142Z,99178.27
2023-01-28T05:20:23.106Z,99178.98
2023-01-28T05:21:25.713Z,99177.67
2023-01-28T05:22:36.639Z,99176.92
2023-01-28T05:23:48.047Z,99179.73
2023-01-28T05:24:50.078Z,99174.95
2023-01-28T05:25:51.956Z,99180.61
2023-01-28T05:26:54.078Z,99179.06
2023-01-28T05:27:55.961Z,99179.75
2023-01-28T05:28:57.851Z,99184.02
2023-01-28T05:30:00.276Z,99182.21
2023-01-28T05:31:07.315Z,99183.67
2023-01-28T05:32:09.853Z,99186.61
2023-01-28T05:33:12.077Z,99186.23
2023-01-28T05:34:14.152Z,99183.61
2023-01-28T05:35:16.675Z,99185.96
2023-01-28T05:36:19.903Z,99184.30
2023-01-28T05:37:22.112Z,99186.13
2023-01-28T05:38:27.632Z,99186.41
2023-01-28T05:39:31.465Z,99187.19
2023-01-28T05:40:33.551Z,99188.36
2023-01-28T05:41:37.840Z,99186.24
2023-01-28T05:42:40.016Z,99188.55
2023-01-28T05:44:28.897Z,99186.64
2023-01-28T05:46:17.779Z,99184.36
2023-01-28T05:48:19.227Z,99184.83
2023-01-28T05:49:51.789Z,99188.34
2023-01-28T05:51:19.106Z,99188.92
2023-01-28T05:52:28.768Z,99188.80
2023-01-28T05:53:32.275Z,99193.61
2023-01-28T05:54:34.614Z,99195.73
2023-01-28T05:55:36.773Z,99195.66
2023-01-28T05:56:40.325Z,99195.63
2023-01-28T05:57:42.713Z,99195.02
2023-01-28T05:58:45.973Z,99196.88
2023-01-28T05:59:48.105Z,99196.36
2023-01-28T06:00:50.201Z,99196.11
2023-01-28T06:01:53.541Z,99193.47
2023-01-28T06:02:56.051Z,99197.85
2023-01-28T06:03:59.532Z,99196.93
2023-01-28T06:05:04.884Z,99196.09
2023-01-28T06:06:07.233Z,99196.83
2023-01-28T06:07:13.246Z,99199.20
2023-01-28T06:08:18.116Z,99199.55
2023-01-28T06:09:19.990Z,99204.03
2023-01-28T06:10:21.933Z,99200.45
2023-01-28T06:11:24.208Z,99200.02
2023-01-28T06:12:28.951Z,99201.83
2023-01-28T06:13:49.880Z,99206.65
2023-01-28T06:15:40.183Z,99206.04
2023-01-28T06:17:29.103Z,99207.42
2023-01-28T06:18:38.707Z,99202.66
2023-01-28T06:19:40.849Z,99206.10
2023-01-28T06:20:43.609Z,99206.76
2023-01-28T06:21:45.582Z,99203.25
2023-01-28T06:22:51.110Z,99206.30
2023-01-28T06:23:53.018Z,99207.33
2023-01-28T06:24:54.986Z,99209.48
2023-01-28T06:25:57.436Z,99207.64
2023-01-28T06:27:00.299Z,99211.21
2023-01-28T06:28:02.207Z,99207.58
2023-01-28T06:29:04.100Z,99206.89
2023-01-28T06:30:06.771Z,99207.34
2023-01-28T06:31:08.931Z,99207.67
2023-01-28T06:32:11.252Z,99211.38
2023-01-28T06:33:13.362Z,99211.69
2023-01-28T06:34:15.584Z,99215.20
2023-01-28T06:35:17.366Z,99215.74
2023-01-28T06:36:19.410Z,99217.13
2023-01-28T06:37:21.285Z,99219.48
2023-01-28T06:38:23.104Z,99216.10
2023-01-28T06:39:27.140Z,99223.72
2023-01-28T06:40:29.030Z,99221.59
2023-01-28T06:41:31.112Z,99223.91
2023-01-28T06:42:33.287Z,99221.05
2023-01-28T06:43:35.680Z,99223.93
2023-01-28T06:44:37.957Z,99223.22
2023-01-28T06:45:39.942Z,99227.38
2023-01-28T06:46:42.064Z,99228.80
2023-01-28T06:47:44.233Z,99229.80
2023-01-28T06:48:46.226Z,99232.07
2023-01-28T06:49:48.213Z,99228.03
2023-01-28T06:50:51.848Z,99227.57
2023-01-28T06:51:53.800Z,99229.70
2023-01-28T06:52:55.713Z,99225.87
2023-01-28T06:53:57.647Z,99227.89
2023-01-28T06:54:59.658Z,99226.16
2023-01-28T06:56:01.897Z,99225.73
2023-01-28T06:57:04.014Z,99230.56
2023-01-28T06:58:05.940Z,99229.13
2023-01-28T06:59:07.946Z,99235.19
2023-01-28T07:00:13.003Z,99239.80
2023-01-28T07:01:15.571Z,99241.05
2023-01-28T07:02:17.440Z,99238.49
2023-01-28T07:03:19.548Z,99243.58
2023-01-28T07:04:21.659Z,99242.98
2023-01-28T07:05:24.588Z,99243.52
2023-01-28T07:06:26.507Z,99243.68
2023-01-28T07:07:29.396Z,99245.77
2023-01-28T07:08:31.593Z,99246.08
2023-01-28T07:09:33.634Z,99246.05
2023-01-28T07:10:35.782Z,99247.30
2023-01-28T07:11:37.981Z,99245.55
2023-01-28T07:12:40.167Z,99246.16
2023-01-28T07:13:42.323Z,99245.34
2023-01-28T07:14:44.245Z,99245.98
2023-01-28T07:15:46.206Z,99249.31
2023-01-28T07:16:48.050Z,99253.66
2023-01-28T07:17:49.900Z,99254.21
2023-01-28T07:18:51.679Z,99254.23
2023-01-28T07:19:53.457Z,99255.64
2023-01-28T07:20:55.548Z,99256.38
2023-01-28T07:22:00.871Z,99255.30
2023-01-28T07:23:02.720Z,99255.54
2023-01-28T07:24:05.469Z,99258.86
2023-01-28T07:25:08.916Z,99256.58
2023-01-28T07:26:11.342Z,99259.60
2023-01-28T07:27:13.644Z,99258.00
2023-01-28T07:28:21.280Z,99255.80
2023-01-28T07:29:23.230Z,99261.30
2023-01-28T07:30:25.721Z,99259.42
2023-01-28T07:31:27.800Z,99261.98
2023-01-28T07:32:29.908Z,99262.06
2023-01-28T07:33:32.263Z,99263.77
2023-01-28T07:34:34.526Z,99262.02
2023-01-28T07:35:37.383Z,99262.70
2023-01-28T07:36:39.512Z,99266.86
2023-01-28T07:37:41.378Z,99266.70
2023-01-28T07:38:43.144Z,99268.02
2023-01-28T07:39:45.143Z,99267.54
2023-01-28T07:40:47.947Z,99270.05
2023-01-28T07:41:49.867Z,99270.48
2023-01-28T07:43:07.318Z,99273.11
2023-01-28T07:44:13.174Z,99273.98
2023-01-28T07:45:16.427Z,99273.70
2023-01-28T07:46:18.371Z,99271.23
2023-01-28T07:47:20.456Z,99274.04
2023-01-28T07:48:22.591Z,99271.02
2023-01-28T07:49:24.427Z,99268.41
2023-01-28T07:50:27.304Z,99272.52
2023-01-28T07:51:30.061Z,99271.36
2023-01-28T07:52:38.461Z,99272.44
2023-01-28T07:53:40.458Z,99270.13
2023-01-28T07:54:42.363Z,99270.36
2023-01-28T07:55:44.483Z,99268.70
2023-01-28T07:56:46.671Z,99272.17
2023-01-28T07:57:52.912Z,99268.52
2023-01-28T07:58:55.195Z,99265.73
2023-01-28T07:59:57.297Z,99264.20
2023-01-28T08:00:59.729Z,99268.58
2023-01-28T08:02:01.908Z,99264.89
2023-01-28T08:03:16.952Z,99263.92
2023-01-28T08:04:19.264Z,99265.23
2023-01-28T08:05:22.154Z,99266.06
2023-01-28T08:06:24.371Z,99271.88
2023-01-28T08:07:27.725Z,99271.21
2023-01-28T08:08:30.218Z,99270.29
2023-01-28T08:09:34.437Z,99273.39
2023-01-28T08:10:39.151Z,99271.03
2023-01-28T08:11:41.055Z,99270.15
2023-01-28T08:12:57.365Z,99270.77
2023-01-28T08:14:00.605Z,99273.72
2023-01-28T08:15:02.772Z,99273.36
2023-01-28T08:16:05.184Z,99276.27
2023-01-28T08:17:07.292Z,99276.16
2023-01-28T08:18:13.366Z,99273.27
2023-01-28T08:19:15.714Z,99271.46
2023-01-28T08:20:18.049Z,99274.18
2023-01-28T08:21:20.017Z,99274.38
2023-01-28T08:22:26.087Z,99274.96
2023-01-28T08:23:29.179Z,99272.92
2023-01-28T08:24:31.566Z,99274.98
2023-01-28T08:25:34.716Z,99272.86
2023-01-28T08:26:36.745Z,99274.48
2023-01-28T08:27:39.075Z,99277.29
2023-01-28T08:28:41.403Z,99278.36
2023-01-28T08:29:43.948Z,99274.59
2023-01-28T08:30:47.204Z,99279.13
2023-01-28T08:31:49.363Z,99276.55
2023-01-28T08:32:51.497Z,99277.98
2023-01-28T08:33:53.435Z,99277.25
2023-01-28T08:34:55.645Z,99275.46
2023-01-28T08:35:57.646Z,99276.60
2023-01-28T08:36:59.780Z,99275.20
2023-01-28T08:38:03.393Z,99277.84
2023-01-28T08:39:06.227Z,99275.09
2023-01-28T08:40:09.436Z,99276.18
2023-01-28T08:41:11.488Z,99276.85
2023-01-28T08:42:13.538Z,99275.96
2023-01-28T08:43:15.473Z,99274.45
2023-01-28T08:44:17.463Z,99276.83
2023-01-28T08:45:27.760Z,99275.43
2023-01-28T08:46:30.369Z,99275.00
2023-01-28T08:47:32.658Z,99276.63
2023-01-28T08:48:34.930Z,99270.17
2023-01-28T08:49:37.150Z,99270.48
2023-01-28T08:50:40.163Z,99272.21
2023-01-28T08:51:42.204Z,99272.59
2023-01-28T08:52:45.363Z,99272.86
2023-01-28T08:53:47.490Z,99274.64
2023-01-28T08:54:49.312Z,99278.98
2023-01-28T08:55:51.320Z,99279.39
2023-01-28T08:56:53.350Z,99275.26
2023-01-28T08:57:57.493Z,99275.28
2023-01-28T08:59:00.534Z,99274.92
2023-01-28T09:00:02.753Z,99277.60
2023-01-28T09:01:07.152Z,99282.32
2023-01-28T09:02:16.599Z,99283.73
2023-01-28T09:03:27.675Z,99283.15
2023-01-28T09:04:30.282Z,99290.05
2023-01-28T09:05:34.195Z,99290.91
2023-01-28T09:06:36.364Z,99292.35
2023-01-28T09:07:39.614Z,99287.95
2023-01-28T09:08:42.256Z,99296.78
2023-01-28T09:09:44.465Z,99298.20
2023-01-28T09:10:46.606Z,99297.87
2023-01-28T09:11:48.897Z,99296.17
2023-01-28T09:12:51.031Z,99297.00
2023-01-28T09:13:53.320Z,99298.01
2023-01-28T09:14:55.503Z,99298.71
2023-01-28T09:15:57.953Z,99299.95
2023-01-28T09:17:00.015Z,99299.29
2023-01-28T09:18:02.394Z,99302.38
2023-01-28T09:19:04.501Z,99304.41
2023-01-28T09:20:08.398Z,99304.97
2023-01-28T09:21:10.824Z,99307.00
2023-01-28T09:22:12.962Z,99302.94
2023-01-28T09:23:15.295Z,99302.02
2023-01-28T09:24:17.395Z,99298.88
2023-01-28T09:25:19.626Z,99300.91
2023-01-28T09:26:21.804Z,99297.73
2023-01-28T09:27:23.787Z,99298.78
2023-01-28T09:28:25.697Z,99297.33
2023-01-28T09:29:27.924Z,99301.52
2023-01-28T09:30:30.421Z,99297.45
2023-01-28T09:31:33.069Z,99300.41
2023-01-28T09:32:35.480Z,99299.40
2023-01-28T09:33:40.085Z,99300.19
2023-01-28T09:34:42.106Z,99301.49
2023-01-28T09:35:44.094Z,99301.88
2023-01-28T09:36:46.252Z,99300.21
2023-01-28T09:37:49.044Z,99300.59
2023-01-28T09:38:51.969Z,99298.21
2023-01-28T09:39:54.162Z,99297.50
2023-01-28T09:40:57.072Z,99298.91
2023-01-28T09:42:09.904Z,99298.44
2023-01-28T09:43:36.973Z,99304.92
2023-01-28T09:44:59.106Z,99303.03
2023-01-28T09:46:05.815Z,99301.98
2023-01-28T09:47:34.421Z,99305.08
2023-01-28T09:48:42.939Z,99304.98
2023-01-28T09:49:50.789Z,99303.32
2023-01-28T09:50:54.780Z,99303.58
2023-01-28T09:51:57.083Z,99304.19
2023-01-28T09:53:18.282Z,99304.52
2023-01-28T09:54:33.662Z,99302.56
2023-01-28T09:55:44.556Z,99305.42
2023-01-28T09:56:51.911Z,99303.95
2023-01-28T09:57:55.564Z,99300.73
2023-01-28T09:59:16.216Z,99302.11
2023-01-28T10:00:47.665Z,99302.23
2023-01-28T10:02:32.043Z,99302.29
2023-01-28T10:03:49.424Z,99303.48
2023-01-28T10:05:20.891Z,99304.45
2023-01-28T10:06:49.164Z,99305.93
2023-01-28T10:08:17.326Z,99304.45
2023-01-28T10:09:38.499Z,99303.27
2023-01-28T10:11:05.684Z,99303.27
2023-01-28T10:12:23.953Z,99300.69
2023-01-28T10:13:31.940Z,99301.98
2023-01-28T10:14:42.990Z,99300.77
2023-01-28T10:15:55.733Z,99298.98
2023-01-28T10:17:17.456Z,99295.85
2023-01-28T10:18:41.035Z,99291.98
2023-01-28T10:19:58.930Z,99288.84
2023-01-28T10:21:25.336Z,99290.63
2023-01-28T10:22:38.290Z,99286.02
2023-01-28T10:24:11.927Z,99286.92
2023-01-28T10:25:28.675Z,99290.27
2023-01-28T10:26:37.105Z,99290.33
2023-01-28T10:27:39.297Z,99288.45
2023-01-28T10:28:41.628Z,99286.46
2023-01-28T10:29:46.533Z,99286.38
2023-01-28T10:30:49.467Z,99286.41
2023-01-28T10:32:00.649Z,99283.95
2023-01-28T10:33:20.592Z,99281.42
2023-01-28T10:34:23.871Z,99278.00
2023-01-28T10:35:27.785Z,99278.31
2023-01-28T10:36:30.632Z,99280.16
2023-01-28T10:37:37.308Z,99285.02
2023-01-28T10:38:40.029Z,99279.70
2023-01-28T10:39:43.899Z,99280.44
2023-01-28T10:40:48.236Z,99281.45
2023-01-28T10:41:58.032Z,99279.90
2023-01-28T10:43:01.357Z,99277.88
2023-01-28T10:44:03.669Z,99280.14
2023-01-28T10:45:23.288Z,99279.11
2023-01-28T10:46:34.109Z,99281.64
2023-01-28T10:47:44.966Z,99279.73
2023-01-28T10:49:08.628Z,99278.84
2023-01-28T10:50:23.627Z,99278.75
2023-01-28T10:51:34.695Z,99276.66
2023-01-28T10:52:36.785Z,99274.70
2023-01-28T10:53:44.535Z,99274.02
2023-01-28T10:54:46.832Z,99273.68
2023-01-28T10:55:54.551Z,99275.15
2023-01-28T10:57:04.410Z,99274.28
2023-01-28T10:58:20.683Z,99277.38
2023-01-28T10:59:36.882Z,99272.08
2023-01-28T11:00:40.156Z,99273.63
2023-01-28T11:01:55.075Z,99268.84
2023-01-28T11:02:58.004Z,99270.77
2023-01-28T11:04:01.064Z,99268.61
2023-01-28T11:05:05.708Z,99272.44
2023-01-28T11:06:25.616Z,99270.31
2023-01-28T11:07:28.071Z,99269.58
2023-01-28T11:08:31.832Z,99269.58
2023-01-28T11:09:38.554Z,99270.07
2023-01-28T11:10:42.675Z,99270.77
2023-01-28T11:11:44.628Z,99272.63
2023-01-28T11:12:56.546Z,99270.31
2023-01-28T11:13:58.915Z,99270.39
2023-01-28T11:15:03.955Z,99268.37
2023-01-28T11:16:17.470Z,99270.28
2023-01-28T11:17:24.714Z,99271.83
2023-01-28T11:18:34.019Z,99270.87
2023-01-28T11:19:39.141Z,99271.77
2023-01-28T11:20:52.334Z,99270.54
2023-01-28T11:21:58.195Z,99269.62
2023-01-28T11:23:00.310Z,99270.23
2023-01-28T11:24:14.305Z,99268.11
2023-01-28T11:25:37.657Z,99269.64
2023-01-28T11:26:45.696Z,99266.08
2023-01-28T11:27:50.538Z,99266.05
2023-01-28T11:28:53.856Z,99266.18
2023-01-28T11:30:04.681Z,99265.61
2023-01-28T11:31:08.301Z,99263.56
2023-01-28T11:32:21.238Z,99261.25
2023-01-28T11:33:33.191Z,99260.42
2023-01-28T11:34:35.465Z,99258.45
2023-01-28T11:35:37.446Z,99257.91
2023-01-28T11:36:51.481Z,99259.10
2023-01-28T11:37:53.572Z,99257.56
2023-01-28T11:39:02.594Z,99257.64
2023-01-28T11:40:19.149Z,99255.64
2023-01-28T11:41:33.196Z,99256.46
2023-01-28T11:42:35.469Z,99253.64
2023-01-28T11:43:37.787Z,99257.19
2023-01-28T11:44:40.728Z,99252.70
2023-01-28T11:46:07.374Z,99253.69
2023-01-28T11:47:34.273Z,99256.13
2023-01-28T11:48:55.204Z,99254.13
2023-01-28T11:50:15.276Z,99251.80
2023-01-28T11:51:30.539Z,99248.15
2023-01-28T11:53:18.747Z,99248.20
2023-01-28T11:54:45.590Z,99251.90
2023-01-28T11:56:13.060Z,99253.09
2023-01-28T11:57:38.621Z,99253.50
2023-01-28T11:59:11.348Z,99252.90
2023-01-28T12:00:36.308Z,99247.30
2023-01-28T12:01:47.922Z,99250.86
2023-01-28T12:02:58.909Z,99247.19
2023-01-28T12:04:21.020Z,99247.16
2023-01-28T12:05:49.028Z,99247.02
2023-01-28T12:07:17.012Z,99246.61
2023-01-28T12:08:24.636Z,99247.52
2023-01-28T12:09:35.780Z,99242.10
2023-01-28T12:10:47.327Z,99243.73
2023-01-28T12:12:13.649Z,99244.88
2023-01-28T12:13:42.396Z,99246.19
2023-01-28T12:14:58.146Z,99246.79
2023-01-28T12:16:28.055Z,99245.44
2023-01-28T12:17:51.298Z,99243.08
2023-01-28T12:19:27.640Z,99246.70
2023-01-28T12:21:10.806Z,99245.17
2023-01-28T12:22:52.287Z,99245.95
2023-01-28T12:24:11.173Z,99245.45
2023-01-28T12:25:22.906Z,99242.90
2023-01-28T12:26:48.790Z,99243.29
2023-01-28T12:28:15.900Z,99241.92
2023-01-28T12:29:39.773Z,99240.10
2023-01-28T12:32:19.983Z,99237.93
2023-01-28T12:33:59.252Z,99241.44
2023-01-28T12:35:11.576Z,99242.11
2023-01-28T12:36:25.193Z,99240.09
2023-01-28T12:37:36.186Z,99243.65
2023-01-28T12:38:58.622Z,99243.70
2023-01-28T12:40:19.326Z,99236.88
2023-01-28T12:41:29.606Z,99235.98
2023-01-28T12:42:41.053Z,99239.97
2023-01-28T12:44:11.594Z,99237.10
2023-01-28T12:45:17.633Z,99237.45
2023-01-28T12:46:52.683Z,99239.83
2023-01-28T12:48:10.666Z,99240.63
2023-01-28T12:49:29.436Z,99240.35
2023-01-28T12:50:47.395Z,99240.32
2023-01-28T12:52:19.065Z,99238.39
2023-01-28T12:53:43.265Z,99240.67
2023-01-28T12:55:04.595Z,99237.86
2023-01-28T12:56:20.301Z,99242.36
2023-01-28T12:57:32.413Z,99242.79
2023-01-28T12:58:43.971Z,99246.29
2023-01-28T12:59:58.931Z,99251.19
2023-01-28T13:01:09.647Z,99252.10
2023-01-28T13:02:11.731Z,99254.16
2023-01-28T13:03:40.218Z,99253.46
2023-01-28T13:05:21.602Z,99251.48
2023-01-28T13:06:51.359Z,99251.34
2023-01-28T13:08:16.720Z,99254.42
2023-01-28T13:09:23.135Z,99256.83
2023-01-28T13:10:30.284Z,99256.80
2023-01-28T13:11:37.337Z,99253.14
2023-01-28T13:12:42.097Z,99253.30
2023-01-28T13:13:46.804Z,99252.54
2023-01-28T13:14:52.677Z,99250.65
2023-01-28T13:15:56.715Z,99251.80
2023-01-28T13:17:13.326Z,99252.63
2023-01-28T13:18:39.758Z,99251.84
2023-01-28T13:19:42.405Z,99255.79
2023-01-28T13:20:52.165Z,99254.36
2023-01-28T13:21:55.434Z,99251.58
2023-01-28T13:23:06.828Z,99250.86
2023-01-28T13:24:09.148Z,99247.10
2023-01-28T13:25:25.198Z,99248.86
2023-01-28T13:26:51.964Z,99249.66
2023-01-28T13:27:57.442Z,99247.33
2023-01-28T13:29:38.232Z,99252.27
2023-01-28T13:30:49.869Z,99254.46
2023-01-28T13:31:54.849Z,99256.17
2023-01-28T13:33:02.997Z,99255.91
2023-01-28T13:34:07.481Z,99261.80